Tavernier, Florida
Current Conditions -  °F | °C
As of 1:58 AM on Thursday 27 Nov 2014 (Local Time) from KHST Reporting Station
Clear Clear  
Wind Chill: 57°   Ceiling: Unl
Heat Index: 57°   Visibility: 10mi
Dew Point: 46°   Wind: 13mph
Humidity: 65%   Direction: 330°NNW
Pressure: 30.17"   Gusts: NA
Location:  25.01°N, 80.51°W
Report Text: KHST 270658Z AUTO 33011KT 10SM CLR 14/08 A3017 RMK AO2 SLP220 T01410077 $
Loading
Personal Weather Stations






























Interactive Weather Map New forecast layout! Learn more

10-Day Weather Forecast

Advertisements
Track Severe Weather on mobile